sensor_id;sensor_type;location;lat;lon;timestamp;P1;P2;P0
69123;PMS5003;56232;53.384;-2.732;2023-12-04T00:00:56;15;13;
69123;PMS5003;56232;53.384;-2.732;2023-12-04T00:03:22;13;13;
69123;PMS5003;56232;53.384;-2.732;2023-12-04T00:05:48;15;15;
69123;PMS5003;56232;53.384;-2.732;2023-12-04T00:08:14;14;13;
69123;PMS5003;56232;53.384;-2.732;2023-12-04T00:10:39;15;14;
69123;PMS5003;56232;53.384;-2.732;2023-12-04T00:13:04;16;14;
69123;PMS5003;56232;53.384;-2.732;2023-12-04T00:15:30;14;13;
69123;PMS5003;56232;53.384;-2.732;2023-12-04T00:17:56;14;14;
69123;PMS5003;56232;53.384;-2.732;2023-12-04T00:20:21;14;14;
69123;PMS5003;56232;53.384;-2.732;2023-12-04T00:22:46;15;15;
69123;PMS5003;56232;53.384;-2.732;2023-12-04T00:25:11;16;15;
69123;PMS5003;56232;53.384;-2.732;2023-12-04T00:27:37;18;14;
69123;PMS5003;56232;53.384;-2.732;2023-12-04T00:30:02;14;14;
69123;PMS5003;56232;53.384;-2.732;2023-12-04T00:32:27;13;13;
69123;PMS5003;56232;53.384;-2.732;2023-12-04T00:34:52;14;14;
69123;PMS5003;56232;53.384;-2.732;2023-12-04T00:37:23;24;18;
69123;PMS5003;56232;53.384;-2.732;2023-12-04T00:39:43;18;15;
69123;PMS5003;56232;53.384;-2.732;2023-12-04T00:42:09;14;13;
69123;PMS5003;56232;53.384;-2.732;2023-12-04T00:44:34;15;14;
69123;PMS5003;56232;53.384;-2.732;2023-12-04T00:47:00;11;11;
69123;PMS5003;56232;53.384;-2.732;2023-12-04T00:49:25;13;13;
69123;PMS5003;56232;53.384;-2.732;2023-12-04T00:51:51;15;15;
69123;PMS5003;56232;53.384;-2.732;2023-12-04T00:54:17;15;15;
69123;PMS5003;56232;53.384;-2.732;2023-12-04T00:56:42;14;13;
69123;PMS5003;56232;53.384;-2.732;2023-12-04T00:59:08;18;15;
69123;PMS5003;56232;53.384;-2.732;2023-12-04T01:01:34;14;14;
69123;PMS5003;56232;53.384;-2.732;2023-12-04T01:03:58;15;14;
69123;PMS5003;56232;53.384;-2.732;2023-12-04T01:06:24;13;13;
69123;PMS5003;56232;53.384;-2.732;2023-12-04T01:08:49;17;17;
69123;PMS5003;56232;53.384;-2.732;2023-12-04T01:11:15;15;13;
69123;PMS5003;56232;53.384;-2.732;2023-12-04T01:13:40;14;13;
69123;PMS5003;56232;53.384;-2.732;2023-12-04T01:16:06;14;14;
69123;PMS5003;56232;53.384;-2.732;2023-12-04T01:18:31;14;13;
69123;PMS5003;56232;53.384;-2.732;2023-12-04T01:20:56;15;15;
69123;PMS5003;56232;53.384;-2.732;2023-12-04T01:23:21;15;15;
69123;PMS5003;56232;53.384;-2.732;2023-12-04T01:25:47;16;16;
69123;PMS5003;56232;53.384;-2.732;2023-12-04T01:28:13;16;14;
69123;PMS5003;56232;53.384;-2.732;2023-12-04T01:30:38;13;12;
69123;PMS5003;56232;53.384;-2.732;2023-12-04T01:33:04;16;14;
69123;PMS5003;56232;53.384;-2.732;2023-12-04T01:35:30;13;12;
69123;PMS5003;56232;53.384;-2.732;2023-12-04T01:37:55;15;15;
69123;PMS5003;56232;53.384;-2.732;2023-12-04T01:40:21;15;15;
69123;PMS5003;56232;53.384;-2.732;2023-12-04T01:42:46;14;14;
69123;PMS5003;56232;53.384;-2.732;2023-12-04T01:45:12;13;12;
69123;PMS5003;56232;53.384;-2.732;2023-12-04T01:47:38;17;16;
69123;PMS5003;56232;53.384;-2.732;2023-12-04T01:50:04;16;16;
69123;PMS5003;56232;53.384;-2.732;2023-12-04T01:52:28;13;13;
69123;PMS5003;56232;53.384;-2.732;2023-12-04T01:54:54;11;11;
69123;PMS5003;56232;53.384;-2.732;2023-12-04T01:57:20;16;15;
69123;PMS5003;56232;53.384;-2.732;2023-12-04T01:59:45;18;16;
69123;PMS5003;56232;53.384;-2.732;2023-12-04T02:02:11;14;14;
69123;PMS5003;56232;53.384;-2.732;2023-12-04T02:04:37;14;14;
69123;PMS5003;56232;53.384;-2.732;2023-12-04T02:07:03;15;13;
69123;PMS5003;56232;53.384;-2.732;2023-12-04T02:09:28;15;14;
69123;PMS5003;56232;53.384;-2.732;2023-12-04T02:11:54;15;13;
69123;PMS5003;56232;53.384;-2.732;2023-12-04T02:14:19;16;15;
69123;PMS5003;56232;53.384;-2.732;2023-12-04T02:16:45;13;13;
69123;PMS5003;56232;53.384;-2.732;2023-12-04T02:19:11;9;9;
69123;PMS5003;56232;53.384;-2.732;2023-12-04T02:21:36;13;12;
69123;PMS5003;56232;53.384;-2.732;2023-12-04T02:24:02;15;12;
69123;PMS5003;56232;53.384;-2.732;2023-12-04T02:26:27;17;15;
69123;PMS5003;56232;53.384;-2.732;2023-12-04T02:28:54;15;12;
69123;PMS5003;56232;53.384;-2.732;2023-12-04T02:31:18;13;13;
69123;PMS5003;56232;53.384;-2.732;2023-12-04T02:33:43;13;13;
69123;PMS5003;56232;53.384;-2.732;2023-12-04T02:36:08;11;11;
69123;PMS5003;56232;53.384;-2.732;2023-12-04T02:38:33;11;9;
69123;PMS5003;56232;53.384;-2.732;2023-12-04T02:40:59;9;9;
69123;PMS5003;56232;53.384;-2.732;2023-12-04T02:43:25;9;8;
69123;PMS5003;56232;53.384;-2.732;2023-12-04T02:45:51;11;9;
69123;PMS5003;56232;53.384;-2.732;2023-12-04T02:48:16;8;7;
69123;PMS5003;56232;53.384;-2.732;2023-12-04T02:50:42;7;7;
69123;PMS5003;56232;53.384;-2.732;2023-12-04T02:53:07;8;8;
69123;PMS5003;56232;53.384;-2.732;2023-12-04T02:55:32;7;6;
69123;PMS5003;56232;53.384;-2.732;2023-12-04T02:57:58;7;7;
69123;PMS5003;56232;53.384;-2.732;2023-12-04T03:00:24;7;7;
69123;PMS5003;56232;53.384;-2.732;2023-12-04T03:02:50;6;6;
69123;PMS5003;56232;53.384;-2.732;2023-12-04T03:05:16;5;5;
69123;PMS5003;56232;53.384;-2.732;2023-12-04T03:07:42;5;5;
69123;PMS5003;56232;53.384;-2.732;2023-12-04T03:10:07;7;7;
69123;PMS5003;56232;53.384;-2.732;2023-12-04T03:12:33;5;5;
69123;PMS5003;56232;53.384;-2.732;2023-12-04T03:14:59;7;6;
69123;PMS5003;56232;53.384;-2.732;2023-12-04T03:17:25;4;4;
69123;PMS5003;56232;53.384;-2.732;2023-12-04T03:19:51;6;6;
69123;PMS5003;56232;53.384;-2.732;2023-12-04T03:22:17;6;6;
69123;PMS5003;56232;53.384;-2.732;2023-12-04T03:24:42;5;5;
69123;PMS5003;56232;53.384;-2.732;2023-12-04T03:27:07;7;6;
69123;PMS5003;56232;53.384;-2.732;2023-12-04T03:29:33;5;5;
69123;PMS5003;56232;53.384;-2.732;2023-12-04T03:31:59;6;5;
69123;PMS5003;56232;53.384;-2.732;2023-12-04T03:34:25;7;6;
69123;PMS5003;56232;53.384;-2.732;2023-12-04T03:36:51;4;4;
69123;PMS5003;56232;53.384;-2.732;2023-12-04T03:39:17;4;4;
69123;PMS5003;56232;53.384;-2.732;2023-12-04T03:41:42;4;4;
69123;PMS5003;56232;53.384;-2.732;2023-12-04T03:44:08;6;6;
69123;PMS5003;56232;53.384;-2.732;2023-12-04T03:46:34;4;4;
69123;PMS5003;56232;53.384;-2.732;2023-12-04T03:49:00;5;4;
69123;PMS5003;56232;53.384;-2.732;2023-12-04T03:51:26;4;4;
69123;PMS5003;56232;53.384;-2.732;2023-12-04T03:53:51;5;5;
69123;PMS5003;56232;53.384;-2.732;2023-12-04T03:56:19;4;4;
69123;PMS5003;56232;53.384;-2.732;2023-12-04T03:58:43;4;4;
69123;PMS5003;56232;53.384;-2.732;2023-12-04T04:01:09;5;5;
69123;PMS5003;56232;53.384;-2.732;2023-12-04T04:03:35;4;4;
69123;PMS5003;56232;53.384;-2.732;2023-12-04T04:06:00;6;6;
69123;PMS5003;56232;53.384;-2.732;2023-12-04T04:08:26;4;4;
69123;PMS5003;56232;53.384;-2.732;2023-12-04T04:10:52;5;5;
69123;PMS5003;56232;53.384;-2.732;2023-12-04T04:13:18;4;4;
69123;PMS5003;56232;53.384;-2.732;2023-12-04T04:15:43;6;5;
69123;PMS5003;56232;53.384;-2.732;2023-12-04T04:18:09;6;6;
69123;PMS5003;56232;53.384;-2.732;2023-12-04T04:20:35;4;4;
69123;PMS5003;56232;53.384;-2.732;2023-12-04T04:23:01;6;6;
69123;PMS5003;56232;53.384;-2.732;2023-12-04T04:25:26;6;6;
69123;PMS5003;56232;53.384;-2.732;2023-12-04T04:27:52;4;4;
69123;PMS5003;56232;53.384;-2.732;2023-12-04T04:30:18;8;7;
69123;PMS5003;56232;53.384;-2.732;2023-12-04T04:32:44;7;7;
69123;PMS5003;56232;53.384;-2.732;2023-12-04T04:35:10;5;5;
69123;PMS5003;56232;53.384;-2.732;2023-12-04T04:37:35;6;6;
69123;PMS5003;56232;53.384;-2.732;2023-12-04T04:40:01;4;4;
69123;PMS5003;56232;53.384;-2.732;2023-12-04T04:42:27;7;5;
69123;PMS5003;56232;53.384;-2.732;2023-12-04T04:44:53;7;7;
69123;PMS5003;56232;53.384;-2.732;2023-12-04T04:47:19;7;7;
69123;PMS5003;56232;53.384;-2.732;2023-12-04T04:49:44;6;6;
69123;PMS5003;56232;53.384;-2.732;2023-12-04T04:52:10;6;6;
69123;PMS5003;56232;53.384;-2.732;2023-12-04T04:54:36;6;6;
69123;PMS5003;56232;53.384;-2.732;2023-12-04T04:57:02;8;8;
69123;PMS5003;56232;53.384;-2.732;2023-12-04T04:59:28;7;7;
69123;PMS5003;56232;53.384;-2.732;2023-12-04T05:01:53;9;8;
69123;PMS5003;56232;53.384;-2.732;2023-12-04T05:04:19;12;7;
69123;PMS5003;56232;53.384;-2.732;2023-12-04T05:06:44;6;6;
69123;PMS5003;56232;53.384;-2.732;2023-12-04T05:09:10;6;6;
69123;PMS5003;56232;53.384;-2.732;2023-12-04T05:11:36;8;7;
69123;PMS5003;56232;53.384;-2.732;2023-12-04T05:14:02;6;6;
69123;PMS5003;56232;53.384;-2.732;2023-12-04T05:16:27;7;7;
69123;PMS5003;56232;53.384;-2.732;2023-12-04T05:18:53;5;5;
69123;PMS5003;56232;53.384;-2.732;2023-12-04T05:21:19;8;8;
69123;PMS5003;56232;53.384;-2.732;2023-12-04T05:23:45;9;9;
69123;PMS5003;56232;53.384;-2.732;2023-12-04T05:26:10;8;8;
69123;PMS5003;56232;53.384;-2.732;2023-12-04T05:28:36;9;8;
69123;PMS5003;56232;53.384;-2.732;2023-12-04T05:31:02;7;7;
69123;PMS5003;56232;53.384;-2.732;2023-12-04T05:33:28;6;6;
69123;PMS5003;56232;53.384;-2.732;2023-12-04T05:35:53;6;6;
69123;PMS5003;56232;53.384;-2.732;2023-12-04T05:38:19;8;8;
69123;PMS5003;56232;53.384;-2.732;2023-12-04T05:40:45;9;9;
69123;PMS5003;56232;53.384;-2.732;2023-12-04T05:43:11;11;9;
69123;PMS5003;56232;53.384;-2.732;2023-12-04T05:45:38;8;8;
69123;PMS5003;56232;53.384;-2.732;2023-12-04T05:48:03;8;8;
69123;PMS5003;56232;53.384;-2.732;2023-12-04T05:50:28;8;8;
69123;PMS5003;56232;53.384;-2.732;2023-12-04T05:52:54;9;9;
69123;PMS5003;56232;53.384;-2.732;2023-12-04T05:55:20;8;8;
69123;PMS5003;56232;53.384;-2.732;2023-12-04T05:57:45;9;9;
69123;PMS5003;56232;53.384;-2.732;2023-12-04T06:00:12;9;9;
69123;PMS5003;56232;53.384;-2.732;2023-12-04T06:02:37;10;10;
69123;PMS5003;56232;53.384;-2.732;2023-12-04T06:05:03;10;10;
69123;PMS5003;56232;53.384;-2.732;2023-12-04T06:07:28;9;9;
69123;PMS5003;56232;53.384;-2.732;2023-12-04T06:09:54;7;7;
69123;PMS5003;56232;53.384;-2.732;2023-12-04T06:12:20;8;8;
69123;PMS5003;56232;53.384;-2.732;2023-12-04T06:14:46;8;8;
69123;PMS5003;56232;53.384;-2.732;2023-12-04T06:17:11;9;9;
69123;PMS5003;56232;53.384;-2.732;2023-12-04T06:19:37;8;8;
69123;PMS5003;56232;53.384;-2.732;2023-12-04T06:22:03;11;11;
69123;PMS5003;56232;53.384;-2.732;2023-12-04T06:24:28;9;9;
69123;PMS5003;56232;53.384;-2.732;2023-12-04T06:26:54;9;9;
69123;PMS5003;56232;53.384;-2.732;2023-12-04T06:29:20;8;8;
69123;PMS5003;56232;53.384;-2.732;2023-12-04T06:31:46;8;8;
69123;PMS5003;56232;53.384;-2.732;2023-12-04T06:34:11;7;7;
69123;PMS5003;56232;53.384;-2.732;2023-12-04T06:36:38;10;10;
69123;PMS5003;56232;53.384;-2.732;2023-12-04T06:39:02;13;11;
69123;PMS5003;56232;53.384;-2.732;2023-12-04T06:41:28;10;9;
69123;PMS5003;56232;53.384;-2.732;2023-12-04T06:43:54;11;11;
69123;PMS5003;56232;53.384;-2.732;2023-12-04T06:46:20;10;9;
69123;PMS5003;56232;53.384;-2.732;2023-12-04T06:48:45;10;10;
69123;PMS5003;56232;53.384;-2.732;2023-12-04T06:51:11;10;9;
69123;PMS5003;56232;53.384;-2.732;2023-12-04T06:53:37;12;12;
69123;PMS5003;56232;53.384;-2.732;2023-12-04T06:56:03;9;9;
69123;PMS5003;56232;53.384;-2.732;2023-12-04T06:58:28;12;12;
69123;PMS5003;56232;53.384;-2.732;2023-12-04T07:00:54;10;10;
69123;PMS5003;56232;53.384;-2.732;2023-12-04T07:03:19;10;10;
69123;PMS5003;56232;53.384;-2.732;2023-12-04T07:05:45;10;10;
69123;PMS5003;56232;53.384;-2.732;2023-12-04T07:08:11;11;11;
69123;PMS5003;56232;53.384;-2.732;2023-12-04T07:10:37;9;9;
69123;PMS5003;56232;53.384;-2.732;2023-12-04T07:13:03;11;10;
69123;PMS5003;56232;53.384;-2.732;2023-12-04T07:15:28;9;9;
69123;PMS5003;56232;53.384;-2.732;2023-12-04T07:17:54;8;8;
69123;PMS5003;56232;53.384;-2.732;2023-12-04T07:20:20;9;9;
69123;PMS5003;56232;53.384;-2.732;2023-12-04T07:22:46;9;9;
69123;PMS5003;56232;53.384;-2.732;2023-12-04T07:25:12;8;8;
69123;PMS5003;56232;53.384;-2.732;2023-12-04T07:27:37;12;11;
69123;PMS5003;56232;53.384;-2.732;2023-12-04T07:30:02;11;11;
69123;PMS5003;56232;53.384;-2.732;2023-12-04T07:32:28;10;9;
69123;PMS5003;56232;53.384;-2.732;2023-12-04T07:34:54;8;8;
69123;PMS5003;56232;53.384;-2.732;2023-12-04T07:37:19;11;11;
69123;PMS5003;56232;53.384;-2.732;2023-12-04T07:39:45;8;8;
69123;PMS5003;56232;53.384;-2.732;2023-12-04T07:42:11;9;8;
69123;PMS5003;56232;53.384;-2.732;2023-12-04T07:44:37;9;9;
69123;PMS5003;56232;53.384;-2.732;2023-12-04T07:47:03;11;11;
69123;PMS5003;56232;53.384;-2.732;2023-12-04T07:49:28;10;10;
69123;PMS5003;56232;53.384;-2.732;2023-12-04T07:51:54;9;9;
69123;PMS5003;56232;53.384;-2.732;2023-12-04T07:54:20;10;9;
69123;PMS5003;56232;53.384;-2.732;2023-12-04T07:56:46;11;11;
69123;PMS5003;56232;53.384;-2.732;2023-12-04T07:59:11;12;10;
69123;PMS5003;56232;53.384;-2.732;2023-12-04T08:01:36;10;10;
69123;PMS5003;56232;53.384;-2.732;2023-12-04T08:04:02;11;10;
69123;PMS5003;56232;53.384;-2.732;2023-12-04T08:06:28;9;9;
69123;PMS5003;56232;53.384;-2.732;2023-12-04T08:08:53;8;8;
69123;PMS5003;56232;53.384;-2.732;2023-12-04T08:11:19;9;9;
69123;PMS5003;56232;53.384;-2.732;2023-12-04T08:13:45;7;7;
69123;PMS5003;56232;53.384;-2.732;2023-12-04T08:16:14;9;8;
69123;PMS5003;56232;53.384;-2.732;2023-12-04T08:18:36;8;8;
69123;PMS5003;56232;53.384;-2.732;2023-12-04T08:21:02;9;8;
69123;PMS5003;56232;53.384;-2.732;2023-12-04T08:23:28;8;8;
69123;PMS5003;56232;53.384;-2.732;2023-12-04T08:25:53;7;7;
69123;PMS5003;56232;53.384;-2.732;2023-12-04T08:28:19;9;8;
69123;PMS5003;56232;53.384;-2.732;2023-12-04T08:30:45;10;9;
69123;PMS5003;56232;53.384;-2.732;2023-12-04T08:33:11;12;12;
69123;PMS5003;56232;53.384;-2.732;2023-12-04T08:35:36;9;9;
69123;PMS5003;56232;53.384;-2.732;2023-12-04T08:38:02;8;8;
69123;PMS5003;56232;53.384;-2.732;2023-12-04T08:40:28;9;8;
69123;PMS5003;56232;53.384;-2.732;2023-12-04T08:42:53;10;9;
69123;PMS5003;56232;53.384;-2.732;2023-12-04T08:45:19;8;8;
69123;PMS5003;56232;53.384;-2.732;2023-12-04T08:47:45;9;8;
69123;PMS5003;56232;53.384;-2.732;2023-12-04T08:50:10;17;14;
69123;PMS5003;56232;53.384;-2.732;2023-12-04T08:52:35;8;8;
69123;PMS5003;56232;53.384;-2.732;2023-12-04T08:55:01;10;9;
69123;PMS5003;56232;53.384;-2.732;2023-12-04T08:57:27;10;10;
69123;PMS5003;56232;53.384;-2.732;2023-12-04T08:59:52;9;9;
69123;PMS5003;56232;53.384;-2.732;2023-12-04T09:02:19;8;8;
69123;PMS5003;56232;53.384;-2.732;2023-12-04T09:04:44;10;10;
69123;PMS5003;56232;53.384;-2.732;2023-12-04T09:07:10;10;10;
69123;PMS5003;56232;53.384;-2.732;2023-12-04T09:09:36;10;10;
69123;PMS5003;56232;53.384;-2.732;2023-12-04T09:12:01;9;8;
69123;PMS5003;56232;53.384;-2.732;2023-12-04T09:14:27;9;9;
69123;PMS5003;56232;53.384;-2.732;2023-12-04T09:16:53;11;10;
69123;PMS5003;56232;53.384;-2.732;2023-12-04T09:19:19;18;12;
69123;PMS5003;56232;53.384;-2.732;2023-12-04T09:21:44;15;11;
69123;PMS5003;56232;53.384;-2.732;2023-12-04T09:24:10;8;8;
69123;PMS5003;56232;53.384;-2.732;2023-12-04T09:26:35;10;10;
69123;PMS5003;56232;53.384;-2.732;2023-12-04T09:29:06;9;8;
69123;PMS5003;56232;53.384;-2.732;2023-12-04T09:31:27;11;10;
69123;PMS5003;56232;53.384;-2.732;2023-12-04T09:33:52;9;8;
69123;PMS5003;56232;53.384;-2.732;2023-12-04T09:36:19;9;9;
69123;PMS5003;56232;53.384;-2.732;2023-12-04T09:38:44;8;8;
69123;PMS5003;56232;53.384;-2.732;2023-12-04T09:41:10;9;8;
69123;PMS5003;56232;53.384;-2.732;2023-12-04T09:43:36;9;9;
69123;PMS5003;56232;53.384;-2.732;2023-12-04T09:46:02;9;8;
69123;PMS5003;56232;53.384;-2.732;2023-12-04T09:48:27;8;8;
69123;PMS5003;56232;53.384;-2.732;2023-12-04T09:50:53;8;8;
69123;PMS5003;56232;53.384;-2.732;2023-12-04T09:53:19;9;9;
69123;PMS5003;56232;53.384;-2.732;2023-12-04T09:55:46;8;8;
69123;PMS5003;56232;53.384;-2.732;2023-12-04T09:58:10;8;7;
69123;PMS5003;56232;53.384;-2.732;2023-12-04T10:00:36;9;9;
69123;PMS5003;56232;53.384;-2.732;2023-12-04T10:03:02;12;12;
69123;PMS5003;56232;53.384;-2.732;2023-12-04T10:05:27;14;13;
69123;PMS5003;56232;53.384;-2.732;2023-12-04T10:07:53;18;17;
69123;PMS5003;56232;53.384;-2.732;2023-12-04T10:10:19;17;16;
69123;PMS5003;56232;53.384;-2.732;2023-12-04T10:12:44;20;20;
69123;PMS5003;56232;53.384;-2.732;2023-12-04T10:15:10;17;16;
69123;PMS5003;56232;53.384;-2.732;2023-12-04T10:17:35;16;15;
69123;PMS5003;56232;53.384;-2.732;2023-12-04T10:20:05;16;15;
69123;PMS5003;56232;53.384;-2.732;2023-12-04T10:22:27;18;17;
69123;PMS5003;56232;53.384;-2.732;2023-12-04T10:24:52;17;15;
69123;PMS5003;56232;53.384;-2.732;2023-12-04T10:27:19;14;13;
69123;PMS5003;56232;53.384;-2.732;2023-12-04T10:29:45;11;10;
69123;PMS5003;56232;53.384;-2.732;2023-12-04T10:32:10;10;10;
69123;PMS5003;56232;53.384;-2.732;2023-12-04T10:34:36;11;11;
69123;PMS5003;56232;53.384;-2.732;2023-12-04T10:37:02;11;11;
69123;PMS5003;56232;53.384;-2.732;2023-12-04T10:39:26;13;12;
69123;PMS5003;56232;53.384;-2.732;2023-12-04T10:44:18;12;11;
69123;PMS5003;56232;53.384;-2.732;2023-12-04T10:46:44;11;11;
69123;PMS5003;56232;53.384;-2.732;2023-12-04T10:49:10;12;10;
69123;PMS5003;56232;53.384;-2.732;2023-12-04T10:51:35;12;11;
69123;PMS5003;56232;53.384;-2.732;2023-12-04T10:54:01;11;11;
69123;PMS5003;56232;53.384;-2.732;2023-12-04T10:56:33;12;11;
69123;PMS5003;56232;53.384;-2.732;2023-12-04T10:58:52;13;12;
69123;PMS5003;56232;53.384;-2.732;2023-12-04T11:01:19;11;11;
69123;PMS5003;56232;53.384;-2.732;2023-12-04T11:03:44;9;9;
69123;PMS5003;56232;53.384;-2.732;2023-12-04T11:06:10;11;11;
69123;PMS5003;56232;53.384;-2.732;2023-12-04T11:08:35;12;12;
69123;PMS5003;56232;53.384;-2.732;2023-12-04T11:11:02;13;13;
69123;PMS5003;56232;53.384;-2.732;2023-12-04T11:13:27;13;12;
69123;PMS5003;56232;53.384;-2.732;2023-12-04T11:15:52;10;10;
69123;PMS5003;56232;53.384;-2.732;2023-12-04T11:18:20;17;14;
69123;PMS5003;56232;53.384;-2.732;2023-12-04T11:20:46;11;11;
69123;PMS5003;56232;53.384;-2.732;2023-12-04T11:23:09;12;12;
69123;PMS5003;56232;53.384;-2.732;2023-12-04T11:25:35;11;10;
69123;PMS5003;56232;53.384;-2.732;2023-12-04T11:28:00;11;11;
69123;PMS5003;56232;53.384;-2.732;2023-12-04T11:30:26;11;10;
69123;PMS5003;56232;53.384;-2.732;2023-12-04T11:32:51;11;11;
69123;PMS5003;56232;53.384;-2.732;2023-12-04T11:35:18;13;11;
69123;PMS5003;56232;53.384;-2.732;2023-12-04T11:37:43;12;10;
69123;PMS5003;56232;53.384;-2.732;2023-12-04T11:40:10;13;12;
69123;PMS5003;56232;53.384;-2.732;2023-12-04T11:42:34;9;9;
69123;PMS5003;56232;53.384;-2.732;2023-12-04T11:45:00;11;11;
69123;PMS5003;56232;53.384;-2.732;2023-12-04T11:47:27;15;14;
69123;PMS5003;56232;53.384;-2.732;2023-12-04T11:49:51;12;12;
69123;PMS5003;56232;53.384;-2.732;2023-12-04T11:52:19;10;10;
69123;PMS5003;56232;53.384;-2.732;2023-12-04T11:59:34;11;10;
69123;PMS5003;56232;53.384;-2.732;2023-12-04T12:01:59;11;11;
69123;PMS5003;56232;53.384;-2.732;2023-12-04T12:04:25;10;10;
69123;PMS5003;56232;53.384;-2.732;2023-12-04T12:06:51;12;12;
69123;PMS5003;56232;53.384;-2.732;2023-12-04T12:09:17;10;10;
69123;PMS5003;56232;53.384;-2.732;2023-12-04T12:11:42;12;12;
69123;PMS5003;56232;53.384;-2.732;2023-12-04T12:14:08;11;11;
69123;PMS5003;56232;53.384;-2.732;2023-12-04T12:16:33;11;11;
69123;PMS5003;56232;53.384;-2.732;2023-12-04T12:19:00;10;9;
69123;PMS5003;56232;53.384;-2.732;2023-12-04T12:21:25;11;11;
69123;PMS5003;56232;53.384;-2.732;2023-12-04T12:23:50;12;11;
69123;PMS5003;56232;53.384;-2.732;2023-12-04T12:26:16;12;12;
69123;PMS5003;56232;53.384;-2.732;2023-12-04T12:28:41;12;12;
69123;PMS5003;56232;53.384;-2.732;2023-12-04T12:31:07;13;13;
69123;PMS5003;56232;53.384;-2.732;2023-12-04T12:33:33;10;9;
69123;PMS5003;56232;53.384;-2.732;2023-12-04T12:35:59;14;13;
69123;PMS5003;56232;53.384;-2.732;2023-12-04T12:38:24;12;11;
69123;PMS5003;56232;53.384;-2.732;2023-12-04T12:40:50;13;13;
69123;PMS5003;56232;53.384;-2.732;2023-12-04T12:43:16;12;11;
69123;PMS5003;56232;53.384;-2.732;2023-12-04T12:45:41;13;12;
69123;PMS5003;56232;53.384;-2.732;2023-12-04T12:48:09;10;10;
69123;PMS5003;56232;53.384;-2.732;2023-12-04T12:50:32;12;11;
69123;PMS5003;56232;53.384;-2.732;2023-12-04T12:52:58;13;13;
69123;PMS5003;56232;53.384;-2.732;2023-12-04T12:55:24;11;11;
69123;PMS5003;56232;53.384;-2.732;2023-12-04T12:57:49;13;12;
69123;PMS5003;56232;53.384;-2.732;2023-12-04T13:00:15;15;14;
69123;PMS5003;56232;53.384;-2.732;2023-12-04T13:02:41;13;13;
69123;PMS5003;56232;53.384;-2.732;2023-12-04T13:05:06;11;10;
69123;PMS5003;56232;53.384;-2.732;2023-12-04T13:07:32;14;14;
69123;PMS5003;56232;53.384;-2.732;2023-12-04T13:09:58;16;16;
69123;PMS5003;56232;53.384;-2.732;2023-12-04T13:12:24;13;13;
69123;PMS5003;56232;53.384;-2.732;2023-12-04T13:14:49;17;14;
69123;PMS5003;56232;53.384;-2.732;2023-12-04T13:17:15;14;14;
69123;PMS5003;56232;53.384;-2.732;2023-12-04T13:19:45;13;13;
69123;PMS5003;56232;53.384;-2.732;2023-12-04T13:22:05;14;13;
69123;PMS5003;56232;53.384;-2.732;2023-12-04T13:24:31;13;13;
69123;PMS5003;56232;53.384;-2.732;2023-12-04T13:26:56;15;15;
69123;PMS5003;56232;53.384;-2.732;2023-12-04T13:29:22;13;13;
69123;PMS5003;56232;53.384;-2.732;2023-12-04T13:31:47;15;15;
69123;PMS5003;56232;53.384;-2.732;2023-12-04T13:34:12;14;13;
69123;PMS5003;56232;53.384;-2.732;2023-12-04T13:36:38;15;15;
69123;PMS5003;56232;53.384;-2.732;2023-12-04T13:39:04;15;14;
69123;PMS5003;56232;53.384;-2.732;2023-12-04T13:41:29;12;12;
69123;PMS5003;56232;53.384;-2.732;2023-12-04T13:43:55;14;13;
69123;PMS5003;56232;53.384;-2.732;2023-12-04T13:46:22;15;14;
69123;PMS5003;56232;53.384;-2.732;2023-12-04T13:48:47;14;14;
69123;PMS5003;56232;53.384;-2.732;2023-12-04T13:51:13;15;14;
69123;PMS5003;56232;53.384;-2.732;2023-12-04T13:53:38;15;15;
69123;PMS5003;56232;53.384;-2.732;2023-12-04T13:56:04;14;14;
69123;PMS5003;56232;53.384;-2.732;2023-12-04T13:58:30;13;13;
69123;PMS5003;56232;53.384;-2.732;2023-12-04T14:00:55;16;16;
69123;PMS5003;56232;53.384;-2.732;2023-12-04T14:03:21;15;15;
69123;PMS5003;56232;53.384;-2.732;2023-12-04T14:05:46;15;15;
69123;PMS5003;56232;53.384;-2.732;2023-12-04T14:08:12;17;16;
69123;PMS5003;56232;53.384;-2.732;2023-12-04T14:10:37;18;16;
69123;PMS5003;56232;53.384;-2.732;2023-12-04T14:13:02;16;15;
69123;PMS5003;56232;53.384;-2.732;2023-12-04T14:15:28;14;13;
69123;PMS5003;56232;53.384;-2.732;2023-12-04T14:17:54;15;13;
69123;PMS5003;56232;53.384;-2.732;2023-12-04T14:20:19;17;16;
69123;PMS5003;56232;53.384;-2.732;2023-12-04T14:22:45;16;16;
69123;PMS5003;56232;53.384;-2.732;2023-12-04T14:25:10;15;15;
69123;PMS5003;56232;53.384;-2.732;2023-12-04T14:27:35;16;16;
69123;PMS5003;56232;53.384;-2.732;2023-12-04T14:30:01;18;18;
69123;PMS5003;56232;53.384;-2.732;2023-12-04T14:32:26;15;15;
69123;PMS5003;56232;53.384;-2.732;2023-12-04T14:34:52;16;16;
69123;PMS5003;56232;53.384;-2.732;2023-12-04T14:37:17;17;17;
69123;PMS5003;56232;53.384;-2.732;2023-12-04T14:39:43;16;16;
69123;PMS5003;56232;53.384;-2.732;2023-12-04T14:42:08;17;17;
69123;PMS5003;56232;53.384;-2.732;2023-12-04T14:44:33;19;17;
69123;PMS5003;56232;53.384;-2.732;2023-12-04T14:46:59;15;15;
69123;PMS5003;56232;53.384;-2.732;2023-12-04T14:49:25;17;17;
69123;PMS5003;56232;53.384;-2.732;2023-12-04T14:51:50;18;17;
69123;PMS5003;56232;53.384;-2.732;2023-12-04T14:54:16;15;14;
69123;PMS5003;56232;53.384;-2.732;2023-12-04T14:56:42;18;15;
69123;PMS5003;56232;53.384;-2.732;2023-12-04T14:59:07;17;16;
69123;PMS5003;56232;53.384;-2.732;2023-12-04T15:01:33;18;17;
69123;PMS5003;56232;53.384;-2.732;2023-12-04T15:03:58;17;17;
69123;PMS5003;56232;53.384;-2.732;2023-12-04T15:06:24;16;16;
69123;PMS5003;56232;53.384;-2.732;2023-12-04T15:08:49;17;17;
69123;PMS5003;56232;53.384;-2.732;2023-12-04T15:11:15;16;16;
69123;PMS5003;56232;53.384;-2.732;2023-12-04T15:13:40;18;17;
69123;PMS5003;56232;53.384;-2.732;2023-12-04T15:16:06;16;16;
69123;PMS5003;56232;53.384;-2.732;2023-12-04T15:18:32;17;17;
69123;PMS5003;56232;53.384;-2.732;2023-12-04T15:20:58;16;16;
69123;PMS5003;56232;53.384;-2.732;2023-12-04T15:23:23;16;15;
69123;PMS5003;56232;53.384;-2.732;2023-12-04T15:25:49;15;15;
69123;PMS5003;56232;53.384;-2.732;2023-12-04T15:28:15;16;16;
69123;PMS5003;56232;53.384;-2.732;2023-12-04T15:30:41;16;15;
69123;PMS5003;56232;53.384;-2.732;2023-12-04T15:33:06;20;18;
69123;PMS5003;56232;53.384;-2.732;2023-12-04T15:35:32;20;19;
69123;PMS5003;56232;53.384;-2.732;2023-12-04T15:37:57;17;16;
69123;PMS5003;56232;53.384;-2.732;2023-12-04T15:40:23;17;17;
69123;PMS5003;56232;53.384;-2.732;2023-12-04T15:42:48;15;15;
69123;PMS5003;56232;53.384;-2.732;2023-12-04T15:45:14;14;14;
69123;PMS5003;56232;53.384;-2.732;2023-12-04T15:47:40;16;16;
69123;PMS5003;56232;53.384;-2.732;2023-12-04T15:50:06;17;16;
69123;PMS5003;56232;53.384;-2.732;2023-12-04T15:52:31;18;16;
69123;PMS5003;56232;53.384;-2.732;2023-12-04T15:54:57;15;14;
69123;PMS5003;56232;53.384;-2.732;2023-12-04T15:57:22;17;17;
69123;PMS5003;56232;53.384;-2.732;2023-12-04T15:59:48;15;15;
69123;PMS5003;56232;53.384;-2.732;2023-12-04T16:02:14;14;13;
69123;PMS5003;56232;53.384;-2.732;2023-12-04T16:04:39;15;15;
69123;PMS5003;56232;53.384;-2.732;2023-12-04T16:07:05;14;14;
69123;PMS5003;56232;53.384;-2.732;2023-12-04T16:09:31;10;10;